Time;durP1;ratioP1;P1;durP2;ratioP2;P2;SDS_P1;SDS_P2;PMS_P1;PMS_P2;Temp;Humidity;BMP_temperature;BMP_pressure;BME280_temperature;BME280_humidity;BME280_pressure;Samples;Min_cycle;Max_cycle;Signal;HPM_P1;HPM_P2
2023/07/29 00:01:21;;;;;;;1.70;1.20;;;;;;;20.72;100.00;99528.06;6248543;28;20052;-72
2023/07/29 00:04:22;;;;;;;2.77;1.50;;;;;;;20.68;100.00;99527.56;6248841;28;20107;-70
2023/07/29 00:07:23;;;;;;;1.70;1.27;;;;;;;20.76;100.00;99531.19;6248642;28;20064;-70
2023/07/29 00:10:24;;;;;;;1.57;1.27;;;;;;;20.67;100.00;99528.56;6249877;28;20075;-72
2023/07/29 00:13:27;;;;;;;2.50;1.20;;;;;;;20.63;100.00;99535.22;6248581;28;20099;-70
2023/07/29 00:16:28;;;;;;;1.65;0.98;;;;;;;20.59;100.00;99528.59;6265147;28;20048;-70
2023/07/29 00:19:32;;;;;;;1.60;1.13;;;;;;;20.58;100.00;99540.19;6248260;28;20057;-73
2023/07/29 00:22:33;;;;;;;1.20;1.08;;;;;;;20.52;100.00;99532.88;6260830;28;20088;-72
2023/07/29 00:25:33;;;;;;;2.87;1.13;;;;;;;20.47;100.00;99537.88;6274110;28;20509;-72
2023/07/29 00:28:34;;;;;;;2.17;1.40;;;;;;;20.48;100.00;99537.69;6272749;28;20110;-72
2023/07/29 00:31:35;;;;;;;3.03;1.30;;;;;;;20.45;100.00;99530.09;6274138;28;20072;-73
2023/07/29 00:34:35;;;;;;;5.27;1.67;;;;;;;20.43;100.00;99531.28;6273529;28;20111;-73
2023/07/29 00:37:37;;;;;;;1.80;1.47;;;;;;;20.46;100.00;99529.09;6273800;28;20206;-72
2023/07/29 00:40:38;;;;;;;;;;;;;;;20.49;100.00;99530.59;6272869;28;20053;-73
2023/07/29 00:43:39;;;;;;;4.68;1.27;;;;;;;20.52;100.00;99519.63;6273819;28;19928;-72
2023/07/29 00:46:41;;;;;;;3.60;1.23;;;;;;;20.42;100.00;99532.25;6273426;28;20040;-72
2023/07/29 00:49:45;;;;;;;5.75;1.50;;;;;;;20.44;100.00;99536.38;6273453;28;20063;-73
2023/07/29 00:52:49;;;;;;;3.13;1.30;;;;;;;20.39;100.00;99536.06;6273322;28;20405;-72
2023/07/29 00:55:49;;;;;;;1.85;1.40;;;;;;;20.39;100.00;99529.97;6272507;28;20076;-72
2023/07/29 00:58:51;;;;;;;2.23;1.20;;;;;;;20.40;100.00;99539.53;6272156;28;20059;-70
2023/07/29 01:01:52;;;;;;;;;;;;;;;20.31;100.00;99536.91;6272372;28;20075;-71
2023/07/29 01:04:58;;;;;;;3.15;1.58;;;;;;;20.31;100.00;99531.63;6271912;28;19935;-72
2023/07/29 01:08:21;;;;;;;2.63;1.40;;;;;;;20.28;100.00;99528.47;6305390;28;20052;-72
2023/07/29 01:11:52;;;;;;;2.33;1.40;;;;;;;20.24;100.00;99529.81;6271936;28;20053;-72
2023/07/29 01:15:11;;;;;;;3.05;1.30;;;;;;;20.25;100.00;99526.19;6271987;28;20099;-73
2023/07/29 01:18:22;;;;;;;1.50;1.33;;;;;;;20.26;100.00;99522.50;6271687;28;20076;-73
2023/07/29 01:21:29;;;;;;;1.98;1.27;;;;;;;20.24;100.00;99528.00;6272891;28;20049;-72
2023/07/29 01:24:29;;;;;;;1.50;1.10;;;;;;;20.17;100.00;99528.84;6272632;28;20075;-72
2023/07/29 01:27:30;;;;;;;1.53;1.30;;;;;;;20.14;100.00;99530.00;6271592;28;20554;-73
2023/07/29 01:30:40;;;;;;;5.47;1.47;;;;;;;20.15;100.00;99523.69;6271398;28;20052;-72
2023/07/29 01:33:52;;;;;;;1.83;1.30;;;;;;;20.14;100.00;99532.66;6270604;28;20053;-71
2023/07/29 01:36:57;;;;;;;1.88;1.17;;;;;;;20.15;100.00;99531.66;6247694;28;20567;-72
2023/07/29 01:40:00;;;;;;;2.08;1.30;;;;;;;20.21;100.00;99532.81;6246647;28;20089;-72
2023/07/29 01:43:01;;;;;;;3.35;1.33;;;;;;;20.20;100.00;99526.69;6247623;28;20088;-72
2023/07/29 01:46:04;;;;;;;4.15;1.48;;;;;;;20.09;100.00;99521.72;6254361;28;20072;-72
2023/07/29 01:49:05;;;;;;;1.70;1.20;;;;;;;20.05;100.00;99526.53;6272064;28;20118;-72
2023/07/29 01:52:06;;;;;;;1.77;1.60;;;;;;;20.09;100.00;99525.19;6271109;28;20492;-71
2023/07/29 01:55:07;;;;;;;2.13;1.37;;;;;;;20.12;100.00;99516.94;6271731;28;20056;-71
2023/07/29 01:58:08;;;;;;;2.78;1.83;;;;;;;20.10;100.00;99510.97;6270778;28;20136;-72
2023/07/29 02:01:08;;;;;;;1.50;1.40;;;;;;;20.10;100.00;99510.97;6271757;28;20101;-72
2023/07/29 02:04:09;;;;;;;3.43;1.50;;;;;;;20.11;100.00;99515.25;6270627;28;20041;-72
2023/07/29 02:07:10;;;;;;;2.47;1.37;;;;;;;20.09;100.00;99516.44;6270691;28;20139;-72
2023/07/29 02:10:11;;;;;;;2.53;1.50;;;;;;;20.09;100.00;99519.91;6271728;28;20106;-72
2023/07/29 02:13:12;;;;;;;6.10;1.57;;;;;;;20.14;100.00;99514.13;6270757;28;20182;-72
2023/07/29 02:16:12;;;;;;;2.85;1.60;;;;;;;20.13;100.00;99515.91;6270565;28;20041;-72
2023/07/29 02:19:13;;;;;;;1.90;1.60;;;;;;;20.06;100.00;99514.13;6270724;28;20085;-72
2023/07/29 02:22:20;;;;;;;1.90;1.47;;;;;;;20.02;100.00;99516.28;6270387;28;20390;-72
2023/07/29 02:25:20;;;;;;;3.13;1.42;;;;;;;19.99;100.00;99511.31;6271474;28;20049;-72
2023/07/29 02:28:21;;;;;;;7.30;1.60;;;;;;;20.07;100.00;99519.22;6270383;28;20060;-72
2023/07/29 02:31:25;;;;;;;2.33;1.43;;;;;;;20.12;100.00;99521.41;6270227;28;20048;-72
2023/07/29 02:34:25;;;;;;;2.22;1.48;;;;;;;20.06;100.00;99522.06;6271251;28;20413;-71
2023/07/29 02:37:28;;;;;;;1.37;1.27;;;;;;;20.07;100.00;99511.28;6271458;28;20092;-72
2023/07/29 02:40:29;;;;;;;2.08;1.38;;;;;;;20.12;100.00;99524.06;6270101;28;20497;-73
2023/07/29 02:43:30;;;;;;;3.60;1.80;;;;;;;20.12;100.00;99521.41;6256068;28;20064;-72
2023/07/29 02:46:30;;;;;;;3.27;1.57;;;;;;;20.06;100.00;99522.06;6246793;28;20125;-72
2023/07/29 02:49:31;;;;;;;1.97;1.70;;;;;;;19.95;100.00;99523.22;6246613;28;20467;-71
2023/07/29 02:52:32;;;;;;;1.80;1.43;;;;;;;19.89;100.00;99521.25;6245197;28;20053;-72
2023/07/29 02:55:33;;;;;;;3.77;1.70;;;;;;;19.95;100.00;99525.06;6245376;28;20497;-71
2023/07/29 02:58:34;;;;;;;1.90;1.60;;;;;;;19.93;100.00;99534.00;6245298;28;20057;-73
2023/07/29 03:01:34;;;;;;;7.63;1.50;;;;;;;19.81;100.00;99545.91;6246407;28;20095;-72
2023/07/29 03:04:35;;;;;;;6.67;1.77;;;;;;;19.79;100.00;99545.25;6246291;28;20052;-72
2023/07/29 03:07:38;;;;;;;2.50;1.63;;;;;;;19.89;100.00;99547.72;6248688;28;20471;-72
2023/07/29 03:10:42;;;;;;;3.08;2.47;;;;;;;19.86;100.00;99550.72;6251029;28;20045;-72
2023/07/29 03:13:43;;;;;;;2.40;1.65;;;;;;;19.84;100.00;99539.47;6249820;28;20071;-72
2023/07/29 03:16:44;;;;;;;2.85;1.73;;;;;;;19.78;100.00;99538.28;6251016;28;20511;-72
2023/07/29 03:19:44;;;;;;;5.77;1.93;;;;;;;19.74;100.00;99547.56;6250009;28;20049;-72
2023/07/29 03:22:46;;;;;;;2.27;1.70;;;;;;;19.71;100.00;99547.91;6250818;28;20045;-72
2023/07/29 03:25:58;;;;;;;3.13;1.77;;;;;;;19.76;100.00;99544.75;6249607;28;20519;-72
2023/07/29 03:28:59;;;;;;;;;;;;;;;19.79;100.00;99542.59;6251294;28;20056;-72
2023/07/29 03:31:59;;;;;;;2.47;1.70;;;;;;;19.77;100.00;99541.09;6250610;28;19921;-72
2023/07/29 03:35:03;;;;;;;2.70;2.00;;;;;;;19.66;100.00;99540.44;6249462;28;20059;-72
2023/07/29 03:38:03;;;;;;;3.42;1.77;;;;;;;19.67;100.00;99549.19;6250592;28;20053;-72
2023/07/29 03:41:04;;;;;;;1.73;1.50;;;;;;;19.71;100.00;99548.72;6250739;28;20132;-72
2023/07/29 03:44:05;;;;;;;3.27;1.80;;;;;;;19.68;100.00;99564.06;6250146;28;20053;-72
2023/07/29 03:47:06;;;;;;;2.37;1.93;;;;;;;19.76;100.00;99564.09;6249415;28;20426;-71
2023/07/29 03:50:07;;;;;;;2.20;2.00;;;;;;;19.87;100.00;99560.28;6252509;28;20069;-72
2023/07/29 03:53:09;;;;;;;2.13;1.70;;;;;;;19.99;100.00;99558.97;6273883;28;20347;-72
2023/07/29 03:56:10;;;;;;;4.40;1.60;;;;;;;20.02;100.00;99561.28;6274698;28;20571;-72
2023/07/29 03:59:11;;;;;;;2.83;1.50;;;;;;;20.03;100.00;99567.41;6307354;28;20052;-72
2023/07/29 04:02:12;;;;;;;2.00;1.60;;;;;;;19.95;100.00;99567.41;6274656;28;20064;-72
2023/07/29 04:05:12;;;;;;;4.37;2.30;;;;;;;19.96;100.00;99561.13;6274579;28;20542;-72
2023/07/29 04:08:13;;;;;;;3.23;2.20;;;;;;;20.04;100.00;99566.44;6306960;28;20045;-72
2023/07/29 04:11:14;;;;;;;4.77;2.60;;;;;;;20.09;100.00;99564.09;6289953;28;20103;-72
2023/07/29 04:14:15;;;;;;;2.90;2.07;;;;;;;20.15;100.00;99562.59;6273358;28;20103;-72
2023/07/29 04:17:15;;;;;;;4.33;2.07;;;;;;;20.11;100.00;99562.94;6273934;28;20420;-72
2023/07/29 04:20:16;;;;;;;3.40;2.17;;;;;;;20.10;100.00;99568.41;6273346;28;20280;-72
2023/07/29 04:23:17;;;;;;;6.83;2.40;;;;;;;20.16;100.00;99570.41;6273016;28;20117;-72
2023/07/29 04:26:18;;;;;;;2.80;2.07;;;;;;;20.13;100.00;99566.22;6273093;28;20096;-72
2023/07/29 04:29:19;;;;;;;2.57;2.37;;;;;;;20.14;100.00;99564.44;6274166;28;20102;-72
2023/07/29 04:32:19;;;;;;;3.17;2.40;;;;;;;20.15;100.00;99576.66;6306526;28;20045;-72
2023/07/29 04:35:20;;;;;;;6.83;3.07;;;;;;;20.22;100.00;99577.66;6273822;28;20057;-72
2023/07/29 04:38:23;;;;;;;6.63;2.80;;;;;;;20.16;100.00;99582.78;6272714;28;20119;-72
2023/07/29 04:41:24;;;;;;;5.30;2.67;;;;;;;20.23;100.00;99581.97;6273921;28;20060;-72
2023/07/29 04:44:25;;;;;;;4.33;3.00;;;;;;;20.24;100.00;99586.28;6273642;28;20045;-73
2023/07/29 04:47:26;;;;;;;4.43;3.27;;;;;;;20.19;100.00;99585.94;6273863;28;20053;-72
2023/07/29 04:50:27;;;;;;;4.53;3.13;;;;;;;20.25;100.00;99584.44;6272377;28;20106;-72
2023/07/29 04:53:28;;;;;;;7.00;2.92;;;;;;;20.35;100.00;99593.03;6273318;28;20412;-71
2023/07/29 04:56:29;;;;;;;7.00;3.50;;;;;;;20.36;100.00;99588.56;6272353;28;20044;-72
2023/07/29 04:59:29;;;;;;;5.93;3.10;;;;;;;20.39;100.00;99593.53;6272100;28;20056;-72
2023/07/29 05:02:30;;;;;;;4.67;3.07;;;;;;;20.40;100.00;99589.88;6273414;28;20452;-72
2023/07/29 05:05:33;;;;;;;3.53;2.63;;;;;;;20.47;100.00;99588.22;6272989;28;20136;-72
2023/07/29 05:08:34;;;;;;;3.92;2.90;;;;;;;20.54;100.00;99584.72;6273423;28;20052;-72
2023/07/29 05:11:35;;;;;;;6.70;3.50;;;;;;;20.48;100.00;99584.56;6273112;28;20049;-72
2023/07/29 05:14:35;;;;;;;5.93;3.27;;;;;;;20.43;100.00;99592.22;6252787;28;20056;-72
2023/07/29 05:17:39;;;;;;;5.77;3.10;;;;;;;20.41;98.82;99596.84;6248301;28;20095;-72
2023/07/29 05:20:39;;;;;;;7.00;3.63;;;;;;;20.37;98.32;99606.13;6247256;28;20049;-71
2023/07/29 05:23:40;;;;;;;4.40;3.37;;;;;;;20.38;96.83;99605.13;6246874;28;20133;-71
2023/07/29 05:26:41;;;;;;;6.77;3.33;;;;;;;20.33;96.50;99608.28;6246954;28;20107;-71
2023/07/29 05:29:42;;;;;;;7.53;3.40;;;;;;;20.42;97.65;99598.50;6246261;28;20053;-72
2023/07/29 05:32:42;;;;;;;4.47;3.60;;;;;;;20.37;97.33;99600.84;6268238;28;20416;-71
2023/07/29 05:35:43;;;;;;;7.80;3.50;;;;;;;20.34;94.58;99599.31;6265402;28;20045;-71
2023/07/29 05:38:44;;;;;;;3.97;3.30;;;;;;;20.31;98.53;99615.56;6285110;28;20444;-71
2023/07/29 05:41:47;;;;;;;3.93;3.50;;;;;;;20.39;100.00;99607.63;6267820;28;20052;-71
2023/07/29 05:44:48;;;;;;;6.75;3.75;;;;;;;20.45;95.92;99614.88;6270246;28;20071;-71
2023/07/29 05:47:49;;;;;;;5.33;3.40;;;;;;;20.53;93.31;99617.53;6272404;28;20048;-71
2023/07/29 05:50:50;;;;;;;7.88;3.67;;;;;;;20.67;94.85;99615.19;6272221;28;20106;-72
2023/07/29 05:53:51;;;;;;;4.53;3.60;;;;;;;20.80;91.25;99614.69;6271480;28;20501;-72
2023/07/29 05:56:52;;;;;;;9.07;3.23;;;;;;;20.83;90.49;99609.84;6256075;28;20132;-71
2023/07/29 05:59:55;;;;;;;4.60;3.03;;;;;;;21.00;92.79;99610.63;6246129;28;20143;-71
2023/07/29 06:02:56;;;;;;;7.32;4.18;;;;;;;21.14;91.14;99614.38;6254528;28;20053;-71
2023/07/29 06:05:59;;;;;;;5.37;3.50;;;;;;;21.25;90.42;99621.97;6296865;28;20041;-71
2023/07/29 06:09:02;;;;;;;5.72;3.53;;;;;;;21.34;89.69;99617.44;6268125;28;20135;-73
2023/07/29 06:12:03;;;;;;;4.55;3.17;;;;;;;21.45;89.47;99619.72;6269921;28;20057;-72
2023/07/29 06:15:05;;;;;;;3.50;3.13;;;;;;;21.51;87.76;99626.97;6274098;28;20060;-71
2023/07/29 06:18:06;;;;;;;4.78;3.40;;;;;;;21.66;87.95;99618.25;6259804;28;20052;-72
2023/07/29 06:21:07;;;;;;;7.00;3.40;;;;;;;21.79;87.04;99625.66;6260201;28;20111;-72
2023/07/29 06:24:08;;;;;;;;;;;;;;;21.92;85.47;99636.50;6259965;28;20041;-72
2023/07/29 06:27:09;;;;;;;4.57;3.30;;;;;;;22.04;87.27;99637.75;6279690;28;19920;-72
2023/07/29 06:30:12;;;;;;;3.77;3.00;;;;;;;22.26;85.50;99649.41;6263546;28;20060;-72
2023/07/29 06:33:13;;;;;;;3.60;2.90;;;;;;;22.39;83.84;99640.81;6246323;28;20056;-72
2023/07/29 06:36:14;;;;;;;3.53;3.10;;;;;;;22.53;83.86;99648.00;6268435;28;20053;-72
2023/07/29 06:39:14;;;;;;;11.20;3.30;;;;;;;22.72;82.17;99643.16;6283351;28;20490;-71
2023/07/29 06:42:15;;;;;;;4.40;3.23;;;;;;;22.93;82.47;99637.09;6274308;28;20073;-72
2023/07/29 06:45:16;;;;;;;6.23;3.63;;;;;;;23.06;81.61;99636.47;6273832;28;20077;-71
2023/07/29 06:48:18;;;;;;;6.20;3.77;;;;;;;23.19;83.13;99646.47;6264207;28;20057;-71
2023/07/29 06:51:21;;;;;;;5.03;3.60;;;;;;;23.38;82.21;99637.09;6267876;28;20515;-71
2023/07/29 06:54:28;;;;;;;3.47;3.00;;;;;;;23.64;80.28;99628.53;6260318;28;20045;-70
2023/07/29 06:57:29;;;;;;;3.75;3.20;;;;;;;23.63;81.25;99627.72;6264553;28;20045;-71
2023/07/29 07:00:29;;;;;;;3.47;3.10;;;;;;;23.85;80.86;99625.94;6291883;28;20509;-71
2023/07/29 07:03:30;;;;;;;4.73;3.23;;;;;;;24.02;80.80;99629.16;6257589;28;20140;-71
2023/07/29 07:06:31;;;;;;;5.63;3.07;;;;;;;24.26;80.26;99619.13;6262563;28;20055;-71
2023/07/29 07:09:32;;;;;;;3.57;2.80;;;;;;;24.41;77.28;99625.19;6261151;28;20052;-70
2023/07/29 07:12:32;;;;;;;4.23;2.90;;;;;;;24.50;75.00;99633.88;6266687;28;20046;-71
2023/07/29 07:15:35;;;;;;;5.07;3.10;;;;;;;24.71;76.55;99633.84;6271212;28;20132;-71
2023/07/29 07:18:36;;;;;;;2.88;2.47;;;;;;;24.88;75.91;99634.34;6307845;28;20053;-71
2023/07/29 07:21:37;;;;;;;3.60;2.87;;;;;;;24.97;74.41;99634.19;6257844;28;20068;-71
2023/07/29 07:24:38;;;;;;;5.40;2.77;;;;;;;25.24;76.88;99627.94;6266022;28;20356;-70
2023/07/29 07:27:38;;;;;;;3.63;2.73;;;;;;;25.37;73.29;99627.19;6261914;28;20045;-71
2023/07/29 07:30:43;;;;;;;4.03;3.10;;;;;;;25.46;72.03;99634.00;6262202;28;20055;-71
2023/07/29 07:33:44;;;;;;;5.30;2.70;;;;;;;25.47;71.03;99632.13;6287094;28;20055;-71
2023/07/29 07:36:45;;;;;;;5.60;2.77;;;;;;;25.69;70.94;99638.16;6273107;28;20044;-71
2023/07/29 07:39:46;;;;;;;3.75;3.35;;;;;;;25.69;70.29;99636.31;6275176;28;20278;-71
2023/07/29 07:42:47;;;;;;;5.87;3.03;;;;;;;25.83;72.77;99645.19;6266943;28;20056;-71
2023/07/29 07:45:47;;;;;;;5.10;2.70;;;;;;;26.00;69.92;99634.13;6249070;28;20412;-71
2023/07/29 07:48:48;;;;;;;2.35;2.15;;;;;;;26.17;68.16;99627.38;6264929;28;20045;-70
2023/07/29 07:51:54;;;;;;;3.53;2.40;;;;;;;26.16;67.47;99631.06;6267938;28;20186;-71
2023/07/29 07:54:54;;;;;;;2.92;2.50;;;;;;;26.43;68.80;99631.88;6273248;28;20055;-70
2023/07/29 07:57:55;;;;;;;3.10;2.30;;;;;;;26.55;68.78;99632.06;6275126;28;20497;-72
2023/07/29 08:01:06;;;;;;;3.50;2.27;;;;;;;26.53;64.16;99631.44;6273576;28;20514;-71
2023/07/29 08:04:07;;;;;;;2.88;2.13;;;;;;;26.67;65.23;99624.25;6274584;28;20074;-71
2023/07/29 08:07:10;;;;;;;3.15;2.30;;;;;;;26.74;63.52;99619.69;6273270;28;20252;-71
2023/07/29 08:10:11;;;;;;;3.47;1.95;;;;;;;27.10;65.56;99621.03;6265550;28;20099;-72
2023/07/29 08:13:12;;;;;;;2.95;2.03;;;;;;;27.39;62.14;99621.56;6272803;28;20452;-71
2023/07/29 08:16:13;;;;;;;5.10;1.83;;;;;;;27.54;61.09;99614.06;6272901;28;20041;-71
2023/07/29 08:19:14;;;;;;;4.37;2.00;;;;;;;27.51;59.02;99611.81;6272688;28;20462;-71
2023/07/29 08:22:16;;;;;;;2.65;2.00;;;;;;;27.58;58.96;99612.59;6273804;28;20270;-71
2023/07/29 08:25:17;;;;;;;3.10;2.00;;;;;;;27.70;60.42;99612.72;6273292;28;20053;-71
2023/07/29 08:28:18;;;;;;;1.90;1.63;;;;;;;27.80;58.30;99614.91;6272711;28;20057;-71
2023/07/29 08:31:21;;;;;;;2.80;1.60;;;;;;;27.94;58.40;99608.44;6273943;28;20049;-72
2023/07/29 08:34:22;;;;;;;2.22;1.70;;;;;;;28.13;57.53;99614.72;6305850;28;20781;-72
2023/07/29 08:37:23;;;;;;;3.53;2.00;;;;;;;28.22;58.98;99610.69;6274059;28;20095;-71
2023/07/29 08:40:29;;;;;;;2.20;1.88;;;;;;;28.48;55.55;99608.81;6272530;28;20053;-71
2023/07/29 08:43:32;;;;;;;2.45;2.00;;;;;;;28.70;55.95;99607.38;6273727;28;20067;-72
2023/07/29 08:46:33;;;;;;;3.35;2.13;;;;;;;28.66;55.85;99610.72;6272065;28;20484;-71
2023/07/29 08:49:35;;;;;;;5.85;1.67;;;;;;;28.80;54.62;99614.09;6273698;28;20053;-72
2023/07/29 08:52:36;;;;;;;1.80;1.70;;;;;;;29.02;55.99;99617.97;6305667;28;20068;-72
2023/07/29 08:55:38;;;;;;;3.20;1.92;;;;;;;29.12;55.22;99615.59;6273405;28;20045;-71
2023/07/29 08:58:39;;;;;;;3.05;2.17;;;;;;;29.27;55.13;99612.50;6272096;28;20069;-72
2023/07/29 09:01:41;;;;;;;3.10;1.95;;;;;;;29.29;54.30;99606.91;6273430;28;20049;-72
2023/07/29 09:04:42;;;;;;;3.10;2.03;;;;;;;29.32;57.21;99609.13;6270708;28;20040;-72
2023/07/29 09:07:45;;;;;;;2.53;1.98;;;;;;;29.50;52.96;99606.41;6273245;28;20053;-72
2023/07/29 09:10:46;;;;;;;2.42;1.80;;;;;;;29.68;51.19;99605.53;6271899;28;20051;-72
2023/07/29 09:13:47;;;;;;;1.83;1.60;;;;;;;29.93;50.91;99599.19;6272827;28;20127;-72
2023/07/29 09:16:48;;;;;;;2.50;1.73;;;;;;;29.73;51.49;99605.69;6272866;28;20052;-72
2023/07/29 09:19:52;;;;;;;3.58;2.00;;;;;;;29.80;54.09;99612.84;6272691;28;20049;-71
2023/07/29 09:22:58;;;;;;;3.25;1.90;;;;;;;29.90;50.81;99613.09;6271508;28;20045;-71
2023/07/29 09:26:04;;;;;;;2.47;1.60;;;;;;;29.89;49.18;99612.25;6272403;28;20049;-72
2023/07/29 09:29:05;;;;;;;1.90;1.60;;;;;;;30.17;51.40;99600.03;6264281;28;20049;-71
2023/07/29 09:32:22;;;;;;;2.47;1.70;;;;;;;30.14;49.25;99597.78;6262433;28;20048;-71
2023/07/29 09:35:27;;;;;;;2.50;1.52;;;;;;;30.07;48.93;99603.28;6270879;28;20489;-72
2023/07/29 09:38:28;;;;;;;2.55;1.95;;;;;;;30.06;51.29;99596.28;6255250;28;20049;-72
2023/07/29 09:41:32;;;;;;;;;;;;;;;30.47;50.46;99601.78;6271789;28;20045;-71
2023/07/29 09:44:36;;;;;;;2.50;1.92;;;;;;;30.58;52.21;99595.59;6249756;28;19931;-71
2023/07/29 09:47:37;;;;;;;1.55;1.45;;;;;;;29.58;51.02;99604.44;6262851;28;20081;-71
2023/07/29 09:50:37;;;;;;;2.40;1.70;;;;;;;30.29;50.36;99594.63;6271530;28;20080;-70
2023/07/29 09:53:44;;;;;;;2.03;1.65;;;;;;;30.29;49.18;99600.00;6269611;28;20056;-71
2023/07/29 09:56:44;;;;;;;2.13;1.52;;;;;;;30.27;50.14;99591.34;6251581;28;20409;-71
2023/07/29 09:59:55;;;;;;;2.92;1.38;;;;;;;30.72;48.08;99585.38;6270410;28;20056;-71
2023/07/29 10:02:57;;;;;;;2.40;1.38;;;;;;;30.98;50.05;99588.63;6271753;28;20057;-71
2023/07/29 10:06:02;;;;;;;2.10;1.40;;;;;;;31.42;49.12;99592.44;6303898;28;20151;-72
2023/07/29 10:09:05;;;;;;;2.67;1.52;;;;;;;31.28;44.81;99591.13;6270793;28;20045;-71
2023/07/29 10:12:07;;;;;;;3.00;1.70;;;;;;;31.08;48.88;99576.19;6271765;28;20186;-72
2023/07/29 10:15:08;;;;;;;2.22;1.48;;;;;;;30.99;49.07;99583.00;6270654;28;20045;-71
2023/07/29 10:18:10;;;;;;;2.08;1.58;;;;;;;30.96;47.88;99588.88;6270412;28;20060;-71
2023/07/29 10:21:13;;;;;;;2.65;1.75;;;;;;;31.57;46.42;99577.63;6270268;28;20057;-72
2023/07/29 10:24:22;;;;;;;1.70;1.23;;;;;;;31.68;47.09;99576.75;6268941;28;20067;-71
2023/07/29 10:27:24;;;;;;;2.58;1.92;;;;;;;32.14;47.40;99569.41;6270373;28;20049;-71
2023/07/29 10:30:28;;;;;;;2.47;1.67;;;;;;;32.22;47.64;99577.06;6269251;28;20049;-71
2023/07/29 10:33:31;;;;;;;2.83;1.80;;;;;;;32.13;44.70;99579.38;6262820;28;20377;-71
2023/07/29 10:36:32;;;;;;;1.52;1.30;;;;;;;31.72;44.73;99575.19;6265869;28;20057;-71
2023/07/29 10:39:39;;;;;;;1.48;1.38;;;;;;;31.14;45.65;99569.03;6270853;28;20048;-71
2023/07/29 10:43:00;;;;;;;4.10;1.45;;;;;;;31.88;44.81;99562.78;6266911;28;20048;-72
2023/07/29 10:46:18;;;;;;;1.92;1.48;;;;;;;31.62;46.71;99567.75;6268236;28;20523;-71
2023/07/29 10:49:23;;;;;;;1.90;1.50;;;;;;;32.46;43.53;99556.09;6260417;28;21760;-71
2023/07/29 10:52:36;;;;;;;2.25;1.65;;;;;;;32.96;42.02;99562.41;6264927;28;20060;-71
2023/07/29 10:55:37;;;;;;;2.35;1.33;;;;;;;32.65;42.17;99551.22;6262301;28;20503;-71
2023/07/29 10:58:37;;;;;;;;;;;;;;;32.71;42.54;99550.22;6265645;28;20049;-71
2023/07/29 11:01:45;;;;;;;2.60;1.43;;;;;;;32.46;41.67;99548.00;6270961;28;20384;-71
2023/07/29 11:04:47;;;;;;;2.25;1.40;;;;;;;31.58;44.60;99547.72;6270555;28;20111;-71
2023/07/29 11:07:49;;;;;;;3.03;1.35;;;;;;;31.07;44.47;99546.78;6270902;28;20091;-71
2023/07/29 11:11:03;;;;;;;2.13;1.40;;;;;;;30.83;45.34;99543.34;6270646;28;20564;-71
2023/07/29 11:14:05;;;;;;;3.58;1.50;;;;;;;31.26;45.45;99542.84;6269676;28;20551;-72
2023/07/29 11:17:05;;;;;;;3.85;1.40;;;;;;;31.29;43.95;99536.13;6269765;28;20048;-71
2023/07/29 11:20:07;;;;;;;1.27;1.17;;;;;;;31.05;44.79;99538.13;6269624;28;20053;-71
2023/07/29 11:23:08;;;;;;;2.08;1.40;;;;;;;31.08;44.85;99540.34;6270452;28;20048;-72
2023/07/29 11:26:09;;;;;;;4.65;1.50;;;;;;;31.20;46.29;99532.22;6269660;28;20516;-72
2023/07/29 11:29:10;;;;;;;1.60;1.30;;;;;;;31.45;43.97;99526.47;6271726;28;20068;-72
2023/07/29 11:32:11;;;;;;;1.55;1.27;;;;;;;30.85;46.47;99525.88;6273743;28;20737;-72
2023/07/29 11:35:35;;;;;;;3.10;1.48;;;;;;;30.99;46.05;99528.31;6303380;28;20398;-72
2023/07/29 11:39:22;;;;;;;1.52;1.30;;;;;;;32.29;45.78;99525.63;6274223;28;20061;-73
2023/07/29 11:42:27;;;;;;;1.90;1.50;;;;;;;31.87;48.74;99526.06;6263899;28;20056;-72
2023/07/29 11:45:30;;;;;;;2.13;1.48;;;;;;;31.38;43.98;99509.59;6262849;28;20549;-72
2023/07/29 11:48:32;;;;;;;2.58;1.50;;;;;;;31.18;46.20;99510.91;6269538;28;20053;-72
2023/07/29 11:51:33;;;;;;;1.50;1.20;;;;;;;30.27;46.13;99511.47;6265033;28;20422;-72
2023/07/29 11:54:38;;;;;;;1.60;1.38;;;;;;;30.33;49.55;99509.72;6266037;28;20052;-72
2023/07/29 11:57:40;;;;;;;3.20;1.20;;;;;;;30.43;48.73;99503.75;6277017;28;20421;-72
2023/07/29 12:00:41;;;;;;;1.48;1.38;;;;;;;31.77;46.24;99510.53;6262554;28;20053;-72
2023/07/29 12:03:42;;;;;;;;;;;;;;;31.53;44.87;99502.63;6295266;28;20060;-72
2023/07/29 12:06:43;;;;;;;1.83;1.02;;;;;;;30.93;46.53;99489.69;6278309;28;19921;-72
2023/07/29 12:09:47;;;;;;;2.00;1.05;;;;;;;30.52;47.24;99497.75;6261418;28;20098;-72
2023/07/29 12:12:49;;;;;;;1.38;1.10;;;;;;;30.59;48.43;99494.94;6280091;28;20049;-72
2023/07/29 12:16:00;;;;;;;1.83;1.30;;;;;;;30.61;47.86;99494.69;6264890;28;20049;-72
2023/07/29 12:19:01;;;;;;;1.65;1.35;;;;;;;30.62;46.64;99493.63;6266278;28;20178;-73
2023/07/29 12:22:03;;;;;;;1.30;1.20;;;;;;;30.56;45.74;99489.19;6273456;28;20049;-72
2023/07/29 12:25:04;;;;;;;4.80;1.10;;;;;;;31.15;46.87;99499.78;6269909;28;20047;-72
2023/07/29 12:28:06;;;;;;;2.80;1.30;;;;;;;30.77;45.53;99490.44;6255048;28;20517;-72
2023/07/29 12:31:08;;;;;;;2.67;1.23;;;;;;;30.39;44.80;99491.81;6271565;28;20049;-72
2023/07/29 12:34:08;;;;;;;3.97;1.30;;;;;;;30.16;46.55;99482.69;6290254;28;20060;-72
2023/07/29 12:37:09;;;;;;;3.30;1.67;;;;;;;30.36;47.34;99479.66;6277921;28;20076;-72
2023/07/29 12:40:27;;;;;;;2.95;1.70;;;;;;;30.09;47.95;99476.63;6291459;28;20064;-72
2023/07/29 12:43:28;;;;;;;1.40;1.30;;;;;;;29.73;48.17;99475.81;6255700;28;20053;-72
2023/07/29 12:46:29;;;;;;;1.70;1.13;;;;;;;29.53;48.95;99479.63;6270241;28;20053;-72
2023/07/29 12:49:31;;;;;;;3.72;1.17;;;;;;;29.37;49.70;99482.19;6261798;28;20055;-72
2023/07/29 12:52:32;;;;;;;2.15;1.25;;;;;;;29.23;50.60;99487.75;6265468;28;20064;-72
2023/07/29 12:55:32;;;;;;;2.05;1.50;;;;;;;28.71;55.25;99492.78;6251758;28;20053;-71
2023/07/29 12:58:33;;;;;;;4.07;2.00;;;;;;;28.88;58.57;99487.59;6258087;28;20404;-72
2023/07/29 13:01:34;;;;;;;2.95;2.08;;;;;;;29.73;57.51;99476.66;6265404;28;20497;-72
2023/07/29 13:04:35;;;;;;;2.30;1.70;;;;;;;30.33;58.49;99477.44;6272469;28;20048;-72
2023/07/29 13:07:35;;;;;;;4.95;1.58;;;;;;;30.66;54.96;99473.25;6262172;28;20045;-72
2023/07/29 13:10:36;;;;;;;3.08;2.05;;;;;;;30.70;54.20;99466.31;6276256;28;20583;-72
2023/07/29 13:13:37;;;;;;;3.40;1.60;;;;;;;30.85;54.12;99472.03;6264210;28;20044;-72
2023/07/29 13:16:38;;;;;;;2.53;1.65;;;;;;;30.94;51.65;99475.16;6293087;28;20045;-71
2023/07/29 13:19:38;;;;;;;2.60;1.55;;;;;;;30.65;51.94;99474.31;6269843;28;20064;-72
2023/07/29 13:22:39;;;;;;;2.47;1.65;;;;;;;30.77;51.44;99467.00;6255902;28;20056;-72
2023/07/29 13:25:40;;;;;;;3.15;1.75;;;;;;;30.81;48.80;99465.47;6265752;28;20473;-72
2023/07/29 13:28:43;;;;;;;2.72;1.58;;;;;;;30.32;49.89;99462.34;6268813;28;20056;-72
2023/07/29 13:31:44;;;;;;;2.42;1.70;;;;;;;30.15;51.13;99459.56;6261955;28;20107;-72
2023/07/29 13:34:44;;;;;;;1.50;1.40;;;;;;;29.75;50.51;99449.50;6247799;28;20065;-72
2023/07/29 13:37:45;;;;;;;2.60;1.60;;;;;;;29.58;52.23;99451.25;6252999;28;20132;-73
2023/07/29 13:40:50;;;;;;;1.92;1.50;;;;;;;29.27;53.00;99443.25;6266165;28;20049;-72
2023/07/29 13:43:51;;;;;;;1.73;1.45;;;;;;;29.49;52.54;99446.22;6262955;28;20112;-72
2023/07/29 13:46:52;;;;;;;2.03;1.50;;;;;;;29.44;53.33;99437.22;6262049;28;20041;-72
2023/07/29 13:49:52;;;;;;;1.55;1.42;;;;;;;29.35;53.40;99439.41;6262290;28;20049;-71
2023/07/29 13:52:53;;;;;;;2.03;1.45;;;;;;;29.01;52.64;99441.75;6271574;28;20052;-71
2023/07/29 13:55:56;;;;;;;5.65;1.42;;;;;;;28.76;51.45;99436.53;6267830;28;20069;-72
2023/07/29 13:58:57;;;;;;;1.17;1.00;;;;;;;28.52;51.98;99443.69;6271656;28;20140;-72
2023/07/29 14:01:58;;;;;;;2.70;1.98;;;;;;;28.32;57.46;99452.75;6269769;28;20053;-72
2023/07/29 14:04:58;;;;;;;4.40;1.58;;;;;;;27.82;64.49;99452.00;6263855;28;20045;-71
2023/07/29 14:07:59;;;;;;;4.15;2.05;;;;;;;27.29;74.96;99435.34;6264312;28;20045;-74
2023/07/29 14:11:00;;;;;;;2.35;1.92;;;;;;;27.10;78.85;99431.75;6269358;28;20060;-73
2023/07/29 14:14:00;;;;;;;2.80;1.63;;;;;;;26.67;79.40;99445.81;6270268;28;20059;-73
2023/07/29 14:17:01;;;;;;;3.38;1.88;;;;;;;26.50;83.07;99458.81;6264991;28;20048;-73